Time;durP1;ratioP1;P1;durP2;ratioP2;P2;SDS_P1;SDS_P2;PMS_P1;PMS_P2;Temp;Humidity;BMP_temperature;BMP_pressure;BME280_temperature;BME280_humidity;BME280_pressure;Samples;Min_cycle;Max_cycle;Signal;HPM_P1;HPM_P2
2023/11/14 11:05:38;;;;;;;;;;;;;;;;;;;;;
2023/11/14 11:08:46;;;;;;;7.73;2.10;;;;;;;;;;5091458;28;20535;-76
2023/11/14 11:11:34;;;;;;;13.50;2.10;;;;;;;;;;5088697;28;20539;-74
2023/11/14 11:14:34;;;;;;;16.50;2.80;;;;;;;;;;5092094;28;20452;-75
2023/11/14 11:17:08;;;;;;;7.20;2.50;;;;;;;;;;5087282;28;20472;-74
2023/11/14 11:19:38;;;;;;;8.67;2.03;;;;;;;;;;5088320;28;20447;-73
2023/11/14 11:22:25;;;;;;;12.13;2.37;;;;;;;;;;5077237;28;20667;-75
2023/11/14 11:25:21;;;;;;;13.97;3.20;;;;;;;;;;5068051;28;20453;-74
2023/11/14 11:27:57;;;;;;;14.63;2.90;;;;;;;;;;5066403;28;20522;-74
2023/11/14 11:33:26;;;;;;;10.50;2.70;;;;;;;;;;5090099;28;20451;-74
2023/11/14 11:36:24;;;;;;;11.03;2.90;;;;;;;;;;5077360;28;20557;-74
2023/11/14 11:39:26;;;;;;;;;;;;;;;;;;;;;
2023/11/14 11:42:00;;;;;;;15.50;3.10;;;;;;;;;;5099102;22;20487;-78
2023/11/14 11:44:42;;;;;;;20.00;4.30;;;;;;;;;;5097204;28;20516;-80
2023/11/14 11:47:30;;;;;;;8.80;3.30;;;;;;;;;;5099527;28;20458;-81
2023/11/14 11:49:58;;;;;;;12.90;3.20;;;;;;;;;;5104154;28;20866;-81
2023/11/14 11:52:26;;;;;;;5.13;2.60;;;;;;;;;;5103962;28;20830;-80
2023/11/14 11:55:19;;;;;;;15.83;2.43;;;;;;;;;;5104369;28;20455;-79
2023/11/14 11:58:24;;;;;;;14.60;3.07;;;;;;;;;;5114460;28;20822;-79
2023/11/14 12:01:17;;;;;;;10.30;3.50;;;;;;;;;;5084952;28;20437;-79
2023/11/14 12:03:46;;;;;;;10.73;2.60;;;;;;;;;;5082128;28;20524;-79
2023/11/14 12:06:17;;;;;;;13.53;2.13;;;;;;;;;;5081698;28;20452;-79
2023/11/14 12:08:45;;;;;;;14.50;2.20;;;;;;;;;;5082130;28;20463;-79
2023/11/14 12:11:21;;;;;;;16.30;2.83;;;;;;;;;;5079956;28;20518;-80
2023/11/14 12:13:53;;;;;;;7.53;1.90;;;;;;;;;;5090028;28;20667;-80
2023/11/14 12:16:27;;;;;;;16.37;2.63;;;;;;;;;;5093867;28;20467;-80
2023/11/14 12:18:59;;;;;;;9.00;2.63;;;;;;;;;;5099533;28;20481;-78
2023/11/14 12:21:27;;;;;;;2.80;1.70;;;;;;;;;;5088887;28;20463;-79
2023/11/14 12:24:02;;;;;;;12.20;2.37;;;;;;;;;;5085104;28;20468;-79
2023/11/14 12:26:32;;;;;;;6.70;2.20;;;;;;;;;;5098159;28;20470;-78
2023/11/14 12:29:00;;;;;;;11.00;2.43;;;;;;;;;;5103664;28;20721;-79
2023/11/14 12:31:33;;;;;;;9.90;1.63;;;;;;;;;;5102249;28;20514;-79
2023/11/14 12:34:02;;;;;;;6.33;2.03;;;;;;;;;;5110064;28;20447;-78
2023/11/14 12:39:26;;;;;;;8.83;1.67;;;;;;;;;;4813991;26;20489;-76
2023/11/14 12:41:57;;;;;;;10.67;2.10;;;;;;;;;;5129529;22;20884;-81
2023/11/14 12:44:30;;;;;;;8.90;1.80;;;;;;;;;;5105089;28;20448;-80
2023/11/14 12:47:01;;;;;;;12.50;3.10;;;;;;;;;;5075605;28;20455;-80
2023/11/14 12:49:31;;;;;;;11.37;2.50;;;;;;;;;;5093992;28;20544;-79
2023/11/14 12:52:10;;;;;;;11.40;2.47;;;;;;;;;;5092645;28;20592;-80
2023/11/14 12:54:41;;;;;;;8.37;1.90;;;;;;;;;;5102505;28;20851;-80
2023/11/14 12:57:09;;;;;;;15.73;3.13;;;;;;;;;;5088155;28;20456;-78
2023/11/14 12:59:45;;;;;;;15.17;2.60;;;;;;;;;;5089904;28;20470;-79
2023/11/14 13:02:17;;;;;;;13.20;2.93;;;;;;;;;;5091021;28;20452;-79
2023/11/14 13:04:49;;;;;;;14.33;2.50;;;;;;;;;;5087484;28;20447;-79
2023/11/14 13:07:18;;;;;;;14.83;3.43;;;;;;;;;;5098778;28;20437;-79
2023/11/14 13:09:46;;;;;;;7.27;1.90;;;;;;;;;;5091890;28;20518;-78
2023/11/14 13:12:16;;;;;;;12.53;2.17;;;;;;;;;;5107658;28;20522;-79
2023/11/14 13:14:45;;;;;;;18.10;4.57;;;;;;;;;;5099662;28;20453;-80
2023/11/14 13:17:15;;;;;;;14.67;1.83;;;;;;;;;;5093987;28;20444;-79
2023/11/14 13:19:44;;;;;;;9.43;3.47;;;;;;;;;;5106875;28;20609;-80
2023/11/14 13:22:14;;;;;;;15.03;2.03;;;;;;;;;;5102592;28;20501;-79
2023/11/14 13:24:46;;;;;;;15.20;2.93;;;;;;;;;;5105051;28;20551;-77
2023/11/14 13:27:19;;;;;;;11.33;2.53;;;;;;;;;;5095691;28;20523;-79
2023/11/14 13:29:50;;;;;;;11.90;3.40;;;;;;;;;;5100414;28;20436;-79
2023/11/14 13:32:21;;;;;;;11.20;3.10;;;;;;;;;;5102049;28;20463;-79
2023/11/14 13:34:51;;;;;;;12.33;2.80;;;;;;;;;;5098507;28;20479;-79
2023/11/14 13:37:18;;;;;;;7.97;2.23;;;;;;;;;;5093146;28;20453;-80
2023/11/14 13:39:46;;;;;;;11.73;2.50;;;;;;;;;;5102718;28;20656;-79
2023/11/14 13:42:15;;;;;;;14.60;3.43;;;;;;;;;;5106478;28;20475;-78
2023/11/14 13:44:44;;;;;;;17.90;2.30;;;;;;;;;;5108010;28;20440;-79
2023/11/14 14:13:48;;;;;;;10.20;2.50;;;;;;;;;;5094886;28;20477;-75
2023/11/14 14:19:31;;;;;;;11.87;2.30;;;;;;;;;;5113968;28;20551;-75
2023/11/14 14:25:19;;;;;;;6.93;1.80;;;;;;;;;;5028756;28;20453;-76
2023/11/14 14:27:55;;;;;;;11.50;2.90;;;;;;;;;;5110636;28;20582;-75
2023/11/14 14:30:30;;;;;;;13.83;2.17;;;;;;;;;;5111497;28;20558;-75
2023/11/14 14:33:11;;;;;;;11.23;2.10;;;;;;;;;;5093516;28;20495;-75
2023/11/14 14:39:30;;;;;;;;;;;;;;;;;;;;;
2023/11/14 14:44:42;;;;;;;6.33;2.20;;;;;;;;;;3405624;26;20487;-79
2023/11/14 14:47:09;;;;;;;8.77;2.10;;;;;;;;;;5082964;28;21089;-79
2023/11/14 14:49:38;;;;;;;11.60;2.10;;;;;;;;;;5094051;28;20493;-79
2023/11/14 14:52:08;;;;;;;13.63;2.67;;;;;;;;;;5087693;28;20476;-79
2023/11/14 14:54:38;;;;;;;6.63;1.80;;;;;;;;;;5097914;28;20841;-78
2023/11/14 14:57:07;;;;;;;12.00;2.13;;;;;;;;;;5093188;28;20460;-79
2023/11/14 14:59:37;;;;;;;11.67;4.57;;;;;;;;;;5085045;28;20485;-79
2023/11/14 15:02:10;;;;;;;6.80;1.60;;;;;;;;;;5079019;28;20476;-81
2023/11/14 15:04:38;;;;;;;5.93;1.70;;;;;;;;;;5083610;28;20543;-77
2023/11/14 15:07:08;;;;;;;10.43;1.77;;;;;;;;;;5080733;28;20542;-77
2023/11/14 15:09:41;;;;;;;5.87;2.20;;;;;;;;;;5086995;28;20527;-78
2023/11/14 15:12:20;;;;;;;10.03;2.20;;;;;;;;;;5085880;28;20471;-80
2023/11/14 15:14:54;;;;;;;12.97;2.80;;;;;;;;;;5087136;28;20444;-77
2023/11/14 15:17:24;;;;;;;11.30;2.17;;;;;;;;;;5083814;28;20486;-78
2023/11/14 15:19:53;;;;;;;17.53;3.33;;;;;;;;;;5079033;28;20792;-78
2023/11/14 15:22:23;;;;;;;5.87;2.40;;;;;;;;;;5062848;28;20469;-78
2023/11/14 15:24:52;;;;;;;8.17;2.03;;;;;;;;;;5067730;28;20745;-78
2023/11/14 15:27:20;;;;;;;8.20;1.93;;;;;;;;;;5074157;28;20448;-78
2023/11/14 15:29:48;;;;;;;10.03;2.80;;;;;;;;;;5066354;28;20499;-78
2023/11/14 15:32:17;;;;;;;5.33;2.27;;;;;;;;;;5081545;28;20484;-79
2023/11/14 15:34:49;;;;;;;9.23;1.53;;;;;;;;;;5074919;28;20449;-78
2023/11/14 15:37:17;;;;;;;9.90;1.77;;;;;;;;;;5084845;28;20459;-78
2023/11/14 15:39:46;;;;;;;13.77;2.57;;;;;;;;;;5080818;28;20453;-81
2023/11/14 15:42:15;;;;;;;10.63;2.10;;;;;;;;;;5075633;28;20461;-78
2023/11/14 15:44:49;;;;;;;6.67;1.53;;;;;;;;;;5092630;28;20477;-78
2023/11/14 15:47:18;;;;;;;15.87;2.77;;;;;;;;;;5107712;28;20517;-79
2023/11/14 15:49:47;;;;;;;10.37;2.73;;;;;;;;;;5104384;28;20475;-79
2023/11/14 15:52:15;;;;;;;10.93;2.27;;;;;;;;;;5098103;28;20445;-78
2023/11/14 15:54:45;;;;;;;14.20;2.87;;;;;;;;;;5090878;28;20471;-79
2023/11/14 15:57:14;;;;;;;7.43;1.90;;;;;;;;;;5086065;28;20482;-78
2023/11/14 15:59:42;;;;;;;12.80;2.43;;;;;;;;;;5084577;28;20452;-78
2023/11/14 16:02:11;;;;;;;9.10;2.90;;;;;;;;;;5084636;28;20515;-78
2023/11/14 16:04:40;;;;;;;9.53;3.70;;;;;;;;;;5086773;28;20447;-79
2023/11/14 16:07:09;;;;;;;14.47;2.37;;;;;;;;;;5096251;28;20459;-79
2023/11/14 16:09:39;;;;;;;10.80;2.53;;;;;;;;;;5102562;28;20483;-78
2023/11/14 16:12:08;;;;;;;13.20;4.00;;;;;;;;;;5099125;28;20463;-79
2023/11/14 16:14:36;;;;;;;13.07;3.00;;;;;;;;;;5102638;28;20536;-78
2023/11/14 16:17:05;;;;;;;8.80;2.70;;;;;;;;;;5102743;28;20459;-80
2023/11/14 16:19:36;;;;;;;12.40;2.40;;;;;;;;;;5102162;28;20438;-78
2023/11/14 16:22:04;;;;;;;7.97;2.50;;;;;;;;;;5102295;28;20559;-78
2023/11/14 16:24:33;;;;;;;8.33;2.03;;;;;;;;;;5099140;28;20925;-79
2023/11/14 16:27:03;;;;;;;8.30;2.47;;;;;;;;;;5101403;28;20516;-78
2023/11/14 16:29:31;;;;;;;14.20;3.30;;;;;;;;;;5104396;28;20480;-79
2023/11/14 16:32:00;;;;;;;13.53;2.33;;;;;;;;;;5100573;28;20501;-79
2023/11/14 16:34:28;;;;;;;12.73;2.93;;;;;;;;;;5100098;28;20743;-79
2023/11/14 16:36:56;;;;;;;7.37;2.67;;;;;;;;;;5098863;28;20455;-80
2023/11/14 16:39:24;;;;;;;7.37;3.00;;;;;;;;;;5100530;28;20468;-78
2023/11/14 16:41:53;;;;;;;16.17;3.20;;;;;;;;;;5099868;28;20491;-79
2023/11/14 16:44:21;;;;;;;12.40;3.27;;;;;;;;;;5098189;28;20563;-79
2023/11/14 16:46:51;;;;;;;22.03;3.63;;;;;;;;;;5095492;28;20440;-79
2023/11/14 16:49:18;;;;;;;12.00;2.10;;;;;;;;;;5096244;28;20927;-78
2023/11/14 16:51:47;;;;;;;10.87;3.03;;;;;;;;;;5099755;28;20466;-78
2023/11/14 16:54:15;;;;;;;11.20;2.67;;;;;;;;;;5097198;28;20459;-79
2023/11/14 16:56:47;;;;;;;16.13;3.30;;;;;;;;;;5088020;28;20674;-82
2023/11/14 16:59:24;;;;;;;12.27;3.40;;;;;;;;;;5079225;28;20448;-81
2023/11/14 17:02:05;;;;;;;11.57;3.30;;;;;;;;;;5083201;28;20444;-79
2023/11/14 17:04:58;;;;;;;17.20;3.43;;;;;;;;;;5103870;28;20465;-80
2023/11/14 17:07:31;;;;;;;13.57;3.00;;;;;;;;;;5105669;28;20742;-79
2023/11/14 17:10:10;;;;;;;9.20;3.57;;;;;;;;;;5092607;28;20480;-81
2023/11/14 17:12:43;;;;;;;22.07;3.27;;;;;;;;;;5086567;28;20467;-80
2023/11/14 17:15:21;;;;;;;11.73;3.43;;;;;;;;;;5080272;28;20455;-79
2023/11/14 17:17:58;;;;;;;13.83;3.77;;;;;;;;;;5094707;28;20452;-79
2023/11/14 17:20:34;;;;;;;11.00;3.10;;;;;;;;;;5091254;28;20561;-81
2023/11/14 17:23:21;;;;;;;15.67;3.67;;;;;;;;;;5101139;28;20467;-80
2023/11/14 17:26:10;;;;;;;16.40;5.47;;;;;;;;;;5105339;28;20565;-82
2023/11/14 17:28:46;;;;;;;29.57;17.43;;;;;;;;;;5098310;28;20454;-80
2023/11/14 17:31:43;;;;;;;14.13;2.90;;;;;;;;;;5094576;28;20443;-79
2023/11/14 17:34:19;;;;;;;13.30;3.50;;;;;;;;;;5088381;28;20839;-81
2023/11/14 17:36:48;;;;;;;9.97;3.20;;;;;;;;;;5095034;28;20468;-81
2023/11/14 17:39:25;;;;;;;15.73;2.17;;;;;;;;;;5099035;28;20468;-80
2023/11/14 17:41:56;;;;;;;11.30;2.67;;;;;;;;;;5100511;28;20528;-80
2023/11/14 17:44:28;;;;;;;10.13;2.77;;;;;;;;;;5110861;28;20467;-78
2023/11/14 17:47:03;;;;;;;11.00;3.33;;;;;;;;;;5102029;28;20460;-78
2023/11/14 17:49:36;;;;;;;13.10;4.27;;;;;;;;;;5082476;28;20494;-80
2023/11/14 17:52:07;;;;;;;15.07;3.17;;;;;;;;;;5095900;28;20462;-81
2023/11/14 17:54:43;;;;;;;13.60;3.10;;;;;;;;;;5100461;28;20443;-80
2023/11/14 17:57:12;;;;;;;9.27;2.10;;;;;;;;;;5097189;28;20455;-82
2023/11/14 17:59:42;;;;;;;12.30;3.50;;;;;;;;;;5107243;28;20503;-80
2023/11/14 18:02:13;;;;;;;13.20;2.93;;;;;;;;;;5109832;28;20452;-80
2023/11/14 18:04:43;;;;;;;12.03;2.23;;;;;;;;;;5090208;28;20473;-80
2023/11/14 18:07:12;;;;;;;17.93;3.90;;;;;;;;;;5097300;28;20455;-82
2023/11/14 18:09:41;;;;;;;15.80;5.17;;;;;;;;;;5107503;28;20575;-79
2023/11/14 18:12:09;;;;;;;13.80;2.63;;;;;;;;;;5108938;28;20436;-81
2023/11/14 18:14:38;;;;;;;23.23;4.43;;;;;;;;;;5103391;28;20543;-78
2023/11/14 18:17:07;;;;;;;19.03;3.93;;;;;;;;;;5109661;28;20456;-81
2023/11/14 18:19:34;;;;;;;20.70;4.40;;;;;;;;;;5099677;28;20490;-82
2023/11/14 18:22:20;;;;;;;12.47;4.27;;;;;;;;;;5101210;28;20543;-81
2023/11/14 18:24:50;;;;;;;23.20;6.10;;;;;;;;;;5066592;28;20669;-79
2023/11/14 18:27:24;;;;;;;23.60;5.47;;;;;;;;;;5073714;28;20633;-79
2023/11/14 18:29:55;;;;;;;19.53;5.40;;;;;;;;;;5071899;28;20481;-77
2023/11/14 18:32:28;;;;;;;22.97;7.57;;;;;;;;;;5072229;28;20769;-78
2023/11/14 18:34:58;;;;;;;22.63;4.53;;;;;;;;;;5072400;28;20464;-79
2023/11/14 18:37:30;;;;;;;14.13;5.00;;;;;;;;;;5066527;28;20457;-79
2023/11/14 18:39:59;;;;;;;16.83;4.40;;;;;;;;;;5086029;28;20448;-77
2023/11/14 18:42:27;;;;;;;19.40;4.60;;;;;;;;;;5075767;28;20444;-79
2023/11/14 18:44:54;;;;;;;22.27;4.23;;;;;;;;;;5068836;28;20491;-79
2023/11/14 18:47:26;;;;;;;17.53;4.60;;;;;;;;;;5066989;28;20464;-79
2023/11/14 18:49:54;;;;;;;11.80;3.17;;;;;;;;;;5080883;28;20801;-78
2023/11/14 18:52:25;;;;;;;21.60;4.43;;;;;;;;;;5077987;28;20936;-78
2023/11/14 18:54:58;;;;;;;19.90;3.73;;;;;;;;;;5068792;28;20445;-79
2023/11/14 18:57:27;;;;;;;16.30;4.17;;;;;;;;;;5071054;28;20851;-78
2023/11/14 18:59:55;;;;;;;17.63;4.03;;;;;;;;;;5086106;28;20537;-78
2023/11/14 19:02:23;;;;;;;17.63;4.13;;;;;;;;;;5069843;28;20460;-78
2023/11/14 19:04:52;;;;;;;19.77;4.43;;;;;;;;;;5066338;28;20461;-77
2023/11/14 19:07:20;;;;;;;19.63;5.43;;;;;;;;;;5081764;28;20468;-78
2023/11/14 19:09:48;;;;;;;18.13;5.10;;;;;;;;;;5086631;28;20477;-79
2023/11/14 19:12:27;;;;;;;15.97;4.77;;;;;;;;;;5083865;28;20457;-78
2023/11/14 19:14:56;;;;;;;16.87;5.33;;;;;;;;;;5081793;28;20444;-79
2023/11/14 19:17:24;;;;;;;23.53;4.50;;;;;;;;;;5075476;28;20468;-79
2023/11/14 19:19:52;;;;;;;17.00;5.00;;;;;;;;;;5065216;28;20547;-79
2023/11/14 19:25:33;;;;;;;19.23;5.27;;;;;;;;;;5063405;28;20536;-77
2023/11/14 19:28:03;;;;;;;17.03;4.93;;;;;;;;;;5077534;28;20789;-78
2023/11/14 19:30:31;;;;;;;13.33;3.27;;;;;;;;;;5085367;28;20487;-78
2023/11/14 19:32:59;;;;;;;16.80;3.77;;;;;;;;;;5084447;28;20468;-78
2023/11/14 19:35:28;;;;;;;17.80;4.10;;;;;;;;;;5076358;28;20453;-78
2023/11/14 19:37:56;;;;;;;19.40;4.10;;;;;;;;;;5081257;28;20469;-79
2023/11/14 19:40:26;;;;;;;19.73;4.20;;;;;;;;;;5067363;28;20462;-78
2023/11/14 19:42:56;;;;;;;20.37;4.53;;;;;;;;;;5070614;28;20460;-77
2023/11/14 19:45:25;;;;;;;24.53;5.13;;;;;;;;;;5056155;28;20474;-77
2023/11/14 19:47:53;;;;;;;15.40;4.03;;;;;;;;;;5064753;28;20529;-79
2023/11/14 19:50:22;;;;;;;26.03;5.17;;;;;;;;;;5082402;28;20494;-77
2023/11/14 19:52:50;;;;;;;12.20;3.90;;;;;;;;;;5077966;28;20457;-77
2023/11/14 19:55:19;;;;;;;13.30;3.43;;;;;;;;;;5075975;28;20681;-78
2023/11/14 19:57:47;;;;;;;24.53;6.90;;;;;;;;;;5079509;28;20743;-78
2023/11/14 20:00:21;;;;;;;22.47;5.50;;;;;;;;;;5082604;28;20451;-77
2023/11/14 20:02:50;;;;;;;18.30;4.17;;;;;;;;;;5072191;28;20469;-77
2023/11/14 20:05:18;;;;;;;21.03;4.30;;;;;;;;;;5066107;28;20512;-78
2023/11/14 20:07:46;;;;;;;25.33;5.83;;;;;;;;;;5064964;28;20485;-77
2023/11/14 20:10:20;;;;;;;13.77;3.53;;;;;;;;;;5061213;28;20493;-78
2023/11/14 20:12:47;;;;;;;16.60;3.67;;;;;;;;;;5066904;28;20501;-77
2023/11/14 20:15:16;;;;;;;24.53;5.17;;;;;;;;;;5071614;28;20505;-78
2023/11/14 20:17:43;;;;;;;16.50;3.80;;;;;;;;;;5065948;28;20596;-78
2023/11/14 20:20:15;;;;;;;16.03;3.60;;;;;;;;;;5063146;28;20752;-79
2023/11/14 20:22:43;;;;;;;14.63;3.50;;;;;;;;;;5058787;28;20459;-78
2023/11/14 20:25:11;;;;;;;10.70;3.03;;;;;;;;;;5059954;28;20457;-77
2023/11/14 20:27:40;;;;;;;18.63;3.30;;;;;;;;;;5056880;28;20765;-77
2023/11/14 20:30:08;;;;;;;23.20;6.20;;;;;;;;;;5056278;28;20481;-80
2023/11/14 20:32:37;;;;;;;18.47;4.80;;;;;;;;;;5058217;28;20527;-77
2023/11/14 20:35:05;;;;;;;16.70;4.87;;;;;;;;;;5057181;28;20465;-78
2023/11/14 20:37:35;;;;;;;18.87;4.90;;;;;;;;;;5063821;28;20457;-78
2023/11/14 20:40:06;;;;;;;18.43;5.10;;;;;;;;;;5060048;28;20862;-79
2023/11/14 20:42:34;;;;;;;21.17;5.80;;;;;;;;;;5061618;28;20966;-80
2023/11/14 20:45:02;;;;;;;18.23;3.57;;;;;;;;;;5062402;28;20492;-79
2023/11/14 20:47:30;;;;;;;11.63;4.10;;;;;;;;;;5064267;28;20445;-78
2023/11/14 20:49:58;;;;;;;14.33;3.90;;;;;;;;;;5059803;28;20492;-79
2023/11/14 20:52:26;;;;;;;13.27;4.00;;;;;;;;;;5060022;28;20953;-80
2023/11/14 20:54:56;;;;;;;9.67;3.83;;;;;;;;;;5059558;28;20457;-79
2023/11/14 20:57:25;;;;;;;12.43;4.23;;;;;;;;;;5083040;28;20460;-78
2023/11/14 20:59:53;;;;;;;21.67;7.40;;;;;;;;;;5087631;28;20464;-79
2023/11/14 21:02:21;;;;;;;19.70;5.13;;;;;;;;;;5083333;28;20908;-79
2023/11/14 21:04:48;;;;;;;21.47;4.97;;;;;;;;;;5081876;28;20703;-80
2023/11/14 21:07:16;;;;;;;15.33;4.50;;;;;;;;;;5082493;28;20452;-79
2023/11/14 21:09:44;;;;;;;11.60;4.80;;;;;;;;;;5081516;28;20449;-78
2023/11/14 21:12:14;;;;;;;17.53;3.83;;;;;;;;;;5079881;28;20484;-78
2023/11/14 21:14:43;;;;;;;18.70;5.67;;;;;;;;;;5083131;28;20854;-78
2023/11/14 21:17:11;;;;;;;18.13;4.47;;;;;;;;;;5081698;28;20533;-78
2023/11/14 21:19:38;;;;;;;15.07;5.53;;;;;;;;;;5083456;28;20448;-78
2023/11/14 21:22:07;;;;;;;16.30;4.53;;;;;;;;;;5080516;28;20460;-78
2023/11/14 21:24:35;;;;;;;18.40;5.50;;;;;;;;;;5080773;28;20543;-78
2023/11/14 21:27:03;;;;;;;27.23;6.30;;;;;;;;;;5080074;28;20544;-78
2023/11/14 21:29:33;;;;;;;15.63;4.00;;;;;;;;;;5083323;28;20751;-78
2023/11/14 21:32:01;;;;;;;21.30;4.90;;;;;;;;;;5082411;28;20518;-77
2023/11/14 21:34:29;;;;;;;28.83;5.17;;;;;;;;;;5081575;28;20465;-78
2023/11/14 21:36:56;;;;;;;18.47;5.17;;;;;;;;;;5083425;28;20439;-78
2023/11/14 21:39:24;;;;;;;15.10;4.73;;;;;;;;;;5080559;28;20873;-78
2023/11/14 21:41:52;;;;;;;20.60;6.10;;;;;;;;;;5081886;28;20452;-79
2023/11/14 21:44:20;;;;;;;25.50;5.57;;;;;;;;;;5080023;28;20579;-80
2023/11/14 21:46:49;;;;;;;24.17;5.03;;;;;;;;;;5080843;28;20480;-79
2023/11/14 21:49:17;;;;;;;23.93;4.87;;;;;;;;;;5082742;28;20717;-78
2023/11/14 21:51:45;;;;;;;13.93;4.93;;;;;;;;;;5083969;28;20637;-80
2023/11/14 21:54:12;;;;;;;13.80;4.67;;;;;;;;;;5083270;28;20452;-77
2023/11/14 21:56:40;;;;;;;14.40;4.43;;;;;;;;;;5084555;28;20480;-78
2023/11/14 21:59:10;;;;;;;13.63;4.23;;;;;;;;;;5083852;28;20453;-78
2023/11/14 22:01:38;;;;;;;15.47;5.17;;;;;;;;;;5085585;28;20492;-78
2023/11/14 22:04:08;;;;;;;21.93;6.27;;;;;;;;;;5082698;28;20468;-78
2023/11/14 22:06:40;;;;;;;20.60;4.97;;;;;;;;;;5085757;28;20651;-78
2023/11/14 22:09:08;;;;;;;18.03;4.80;;;;;;;;;;5083616;28;20460;-77
2023/11/14 22:11:36;;;;;;;15.47;4.00;;;;;;;;;;5089024;28;20483;-78
2023/11/14 22:14:06;;;;;;;12.83;3.43;;;;;;;;;;5088506;28;20456;-77
2023/11/14 22:16:37;;;;;;;16.70;5.17;;;;;;;;;;5083126;28;20461;-77
2023/11/14 22:19:05;;;;;;;16.03;4.90;;;;;;;;;;5086200;28;20490;-77
2023/11/14 22:21:34;;;;;;;13.67;5.37;;;;;;;;;;5082145;28;20514;-77
2023/11/14 22:24:03;;;;;;;17.90;4.47;;;;;;;;;;5082007;28;20460;-78
2023/11/14 22:26:31;;;;;;;13.77;5.53;;;;;;;;;;5079270;28;20448;-77
2023/11/14 22:28:58;;;;;;;15.13;3.10;;;;;;;;;;5080538;28;20536;-78
2023/11/14 22:31:26;;;;;;;20.80;4.13;;;;;;;;;;5080207;28;20574;-77
2023/11/14 22:33:54;;;;;;;17.77;3.80;;;;;;;;;;5082096;28;20444;-77
2023/11/14 22:36:29;;;;;;;12.07;2.90;;;;;;;;;;5079943;28;20834;-78
2023/11/14 22:38:59;;;;;;;12.17;3.37;;;;;;;;;;5083391;28;20459;-78
2023/11/14 22:41:27;;;;;;;10.60;2.77;;;;;;;;;;5082411;28;20492;-78
2023/11/14 22:43:55;;;;;;;10.20;2.90;;;;;;;;;;5080025;28;20472;-78
2023/11/14 22:46:27;;;;;;;17.60;4.20;;;;;;;;;;5079590;28;20456;-78
2023/11/14 22:48:54;;;;;;;7.57;2.27;;;;;;;;;;5084050;28;20459;-78
2023/11/14 22:51:22;;;;;;;13.10;3.23;;;;;;;;;;5083648;28;20494;-79
2023/11/14 22:53:50;;;;;;;18.63;2.97;;;;;;;;;;5085438;28;20467;-78
2023/11/14 22:56:19;;;;;;;10.93;3.07;;;;;;;;;;5083987;28;20487;-78
2023/11/14 22:58:47;;;;;;;11.70;2.30;;;;;;;;;;5081964;28;20453;-78
2023/11/14 23:01:15;;;;;;;10.80;2.57;;;;;;;;;;5083210;28;20448;-78
2023/11/14 23:03:43;;;;;;;10.80;2.37;;;;;;;;;;5086579;28;20466;-78
2023/11/14 23:06:12;;;;;;;6.93;2.17;;;;;;;;;;5083335;28;20466;-78
2023/11/14 23:08:40;;;;;;;9.30;3.43;;;;;;;;;;5085720;28;20456;-78
2023/11/14 23:11:08;;;;;;;6.50;2.30;;;;;;;;;;5088231;28;20519;-78
2023/11/14 23:13:39;;;;;;;9.00;3.17;;;;;;;;;;5085649;28;20463;-78
2023/11/14 23:16:08;;;;;;;4.60;1.90;;;;;;;;;;5086153;28;20465;-78
2023/11/14 23:18:39;;;;;;;6.50;2.50;;;;;;;;;;5082627;28;20463;-78
2023/11/14 23:21:07;;;;;;;8.80;2.70;;;;;;;;;;5081059;28;20453;-77
2023/11/14 23:23:35;;;;;;;7.00;3.20;;;;;;;;;;5079482;28;20510;-78
2023/11/14 23:26:04;;;;;;;9.37;2.30;;;;;;;;;;5083553;28;20456;-78
2023/11/14 23:28:31;;;;;;;5.60;2.60;;;;;;;;;;5082354;28;20935;-78
2023/11/14 23:31:00;;;;;;;7.73;2.40;;;;;;;;;;5086257;28;20498;-78
2023/11/14 23:33:28;;;;;;;4.47;2.03;;;;;;;;;;5085021;28;20865;-78
2023/11/14 23:35:56;;;;;;;6.13;2.10;;;;;;;;;;5087376;28;20449;-79
2023/11/14 23:38:24;;;;;;;6.47;1.87;;;;;;;;;;5084840;28;20854;-78
2023/11/14 23:40:51;;;;;;;4.90;2.40;;;;;;;;;;5083847;28;20461;-78
2023/11/14 23:43:19;;;;;;;8.33;2.30;;;;;;;;;;5083918;28;20506;-78
2023/11/14 23:45:47;;;;;;;6.63;2.30;;;;;;;;;;5083411;28;20499;-79
2023/11/14 23:48:16;;;;;;;6.53;2.87;;;;;;;;;;5085458;28;20468;-78
2023/11/14 23:50:44;;;;;;;6.97;2.50;;;;;;;;;;5084314;28;20496;-78
2023/11/14 23:53:12;;;;;;;16.27;3.30;;;;;;;;;;5085443;28;20449;-78
2023/11/14 23:55:41;;;;;;;4.87;1.93;;;;;;;;;;5084972;28;20516;-78
2023/11/14 23:58:10;;;;;;;8.03;1.90;;;;;;;;;;5085059;28;20516;-78
